Time;durP1;ratioP1;P1;durP2;ratioP2;P2;SDS_P1;SDS_P2;PMS_P1;PMS_P2;Temp;Humidity;BMP_temperature;BMP_pressure;BME280_temperature;BME280_humidity;BME280_pressure;Samples;Min_cycle;Max_cycle;Signal;HPM_P1;HPM_P2
2022/05/06 00:01:29;;;;;;;4.88;3.67;;;;;;;;;;5050608;28;20021;-35
2022/05/06 00:03:55;;;;;;;5.13;3.63;;;;;;;;;;5050505;28;20476;-36
2022/05/06 00:06:20;;;;;;;3.50;2.95;;;;;;;;;;5050706;28;20029;-35
2022/05/06 00:08:46;;;;;;;6.32;3.30;;;;;;;;;;5054183;28;20037;-35
2022/05/06 00:11:12;;;;;;;3.95;3.58;;;;;;;;;;5054370;28;20039;-35
2022/05/06 00:13:37;;;;;;;5.30;3.50;;;;;;;;;;5054007;28;20119;-35
2022/05/06 00:16:03;;;;;;;5.45;3.90;;;;;;;;;;5053968;28;20052;-35
2022/05/06 00:18:31;;;;;;;4.85;2.95;;;;;;;;;;5053886;28;20202;-35
2022/05/06 00:20:57;;;;;;;4.88;4.00;;;;;;;;;;5053971;28;20158;-35
2022/05/06 00:23:23;;;;;;;5.53;3.83;;;;;;;;;;5054090;28;20387;-35
2022/05/06 00:25:49;;;;;;;7.75;4.10;;;;;;;;;;5053834;28;20020;-35
2022/05/06 00:28:15;;;;;;;5.45;4.20;;;;;;;;;;5054076;28;20036;-35
2022/05/06 00:30:41;;;;;;;5.53;3.97;;;;;;;;;;5035891;28;20098;-35
2022/05/06 00:33:09;;;;;;;10.13;4.82;;;;;;;;;;5053887;28;20068;-35
2022/05/06 00:35:40;;;;;;;6.30;4.13;;;;;;;;;;5053649;28;20020;-36
2022/05/06 00:38:05;;;;;;;5.05;3.47;;;;;;;;;;5053808;28;20033;-35
2022/05/06 00:40:30;;;;;;;8.55;3.90;;;;;;;;;;5053776;28;20017;-35
2022/05/06 00:42:56;;;;;;;7.40;3.90;;;;;;;;;;5053523;28;20028;-35
2022/05/06 00:45:22;;;;;;;6.60;4.55;;;;;;;;;;5035571;28;20024;-35
2022/05/06 00:47:48;;;;;;;6.45;4.53;;;;;;;;;;5035530;28;20139;-35
2022/05/06 00:50:13;;;;;;;6.45;4.07;;;;;;;;;;5053319;28;20024;-35
2022/05/06 00:52:39;;;;;;;5.97;4.47;;;;;;;;;;5053277;28;20094;-35
2022/05/06 00:55:05;;;;;;;9.35;4.43;;;;;;;;;;5035400;28;20021;-35
2022/05/06 00:57:30;;;;;;;7.13;4.35;;;;;;;;;;5053319;28;20044;-35
2022/05/06 01:02:40;;;;;;;8.18;4.72;;;;;;;;;;5052956;28;20041;-35
2022/05/06 01:05:07;;;;;;;8.05;4.80;;;;;;;;;;5053183;28;20460;-35
2022/05/06 01:07:33;;;;;;;5.63;4.82;;;;;;;;;;5035017;28;20041;-35
2022/05/06 01:09:59;;;;;;;9.45;4.47;;;;;;;;;;5053027;28;20025;-35
2022/05/06 01:12:24;;;;;;;14.63;6.72;;;;;;;;;;5052954;28;20032;-35
2022/05/06 01:14:50;;;;;;;10.15;5.30;;;;;;;;;;5052804;28;20047;-35
2022/05/06 01:17:22;;;;;;;8.30;5.20;;;;;;;;;;5034622;28;20044;-35
2022/05/06 01:19:47;;;;;;;7.10;5.18;;;;;;;;;;5051903;28;20021;-35
2022/05/06 01:22:14;;;;;;;8.95;5.82;;;;;;;;;;5052765;28;20036;-35
2022/05/06 01:24:39;;;;;;;8.13;4.93;;;;;;;;;;5034816;28;20490;-35
2022/05/06 01:27:09;;;;;;;7.07;4.63;;;;;;;;;;5052644;28;20017;-35
2022/05/06 01:29:37;;;;;;;8.30;4.57;;;;;;;;;;5034656;28;20025;-35
2022/05/06 01:32:02;;;;;;;8.95;4.80;;;;;;;;;;5052643;28;20060;-35
2022/05/06 01:34:29;;;;;;;13.15;5.72;;;;;;;;;;5034775;28;20114;-35
2022/05/06 01:36:56;;;;;;;7.25;5.25;;;;;;;;;;5052392;28;20040;-35
2022/05/06 01:39:33;;;;;;;10.35;5.63;;;;;;;;;;5034553;28;20095;-36
2022/05/06 01:42:07;;;;;;;6.60;4.25;;;;;;;;;;5034639;28;20124;-35
2022/05/06 01:44:39;;;;;;;13.90;5.65;;;;;;;;;;5052605;28;20056;-35
2022/05/06 01:47:12;;;;;;;8.38;5.18;;;;;;;;;;5034366;28;20033;-35
2022/05/06 01:49:39;;;;;;;8.52;5.18;;;;;;;;;;5034277;28;20547;-35
2022/05/06 01:52:07;;;;;;;12.25;4.50;;;;;;;;;;5052507;28;20344;-36
2022/05/06 01:54:35;;;;;;;8.65;4.68;;;;;;;;;;5034235;28;20055;-36
2022/05/06 01:57:01;;;;;;;7.70;6.13;;;;;;;;;;5052086;28;20555;-36
2022/05/06 01:59:27;;;;;;;8.90;5.20;;;;;;;;;;5052238;28;20110;-35
2022/05/06 02:02:02;;;;;;;7.80;5.50;;;;;;;;;;5034189;28;20028;-36
2022/05/06 02:07:15;;;;;;;10.32;5.25;;;;;;;;;;5034039;28;20476;-35
2022/05/06 02:09:42;;;;;;;7.03;4.50;;;;;;;;;;5033986;28;20037;-35
2022/05/06 02:12:11;;;;;;;7.53;4.75;;;;;;;;;;5050567;28;20111;-35
2022/05/06 02:15:06;;;;;;;7.95;5.30;;;;;;;;;;5039459;28;20104;-35
2022/05/06 02:17:50;;;;;;;8.25;5.57;;;;;;;;;;5051619;28;20052;-36
2022/05/06 02:20:24;;;;;;;8.80;4.57;;;;;;;;;;5033728;28;20028;-36
2022/05/06 02:22:50;;;;;;;8.23;5.53;;;;;;;;;;5051978;28;20555;-35
2022/05/06 02:25:27;;;;;;;10.38;5.55;;;;;;;;;;5033657;28;20017;-35
2022/05/06 02:27:59;;;;;;;7.28;5.05;;;;;;;;;;5051648;28;20403;-34
2022/05/06 02:33:23;;;;;;;10.35;5.25;;;;;;;;;;5033538;28;20036;-36
2022/05/06 02:35:55;;;;;;;5.45;4.07;;;;;;;;;;5033627;28;20029;-35
2022/05/06 02:38:26;;;;;;;7.72;5.28;;;;;;;;;;5033403;28;20045;-36
2022/05/06 02:40:53;;;;;;;6.53;4.85;;;;;;;;;;5051649;28;20029;-35
2022/05/06 02:43:20;;;;;;;6.85;5.70;;;;;;;;;;5033521;28;20028;-36
2022/05/06 02:45:49;;;;;;;9.52;5.30;;;;;;;;;;5050101;28;20781;-35
2022/05/06 02:48:15;;;;;;;15.85;5.90;;;;;;;;;;5033312;28;20033;-35
2022/05/06 02:50:41;;;;;;;11.18;6.22;;;;;;;;;;5033804;28;20024;-35
2022/05/06 02:53:07;;;;;;;5.93;4.70;;;;;;;;;;5050049;28;20024;-35
2022/05/06 02:55:33;;;;;;;8.95;5.40;;;;;;;;;;5033239;28;20442;-35
2022/05/06 02:58:00;;;;;;;7.28;5.90;;;;;;;;;;5033229;28;20028;-34
2022/05/06 03:00:26;;;;;;;6.40;4.70;;;;;;;;;;5051351;28;20083;-36
2022/05/06 03:02:56;;;;;;;7.05;5.40;;;;;;;;;;5033157;28;20832;-35
2022/05/06 03:05:24;;;;;;;9.48;5.05;;;;;;;;;;5049796;28;20040;-36
2022/05/06 03:07:50;;;;;;;9.45;5.68;;;;;;;;;;5049775;28;20039;-35
2022/05/06 03:10:15;;;;;;;12.88;6.95;;;;;;;;;;5033250;28;20029;-35
2022/05/06 03:12:44;;;;;;;9.93;6.72;;;;;;;;;;5016727;28;20021;-35
2022/05/06 03:15:15;;;;;;;8.70;6.15;;;;;;;;;;5033148;28;20025;-35
2022/05/06 03:17:46;;;;;;;8.00;5.10;;;;;;;;;;5033017;28;20123;-35
2022/05/06 03:20:12;;;;;;;10.75;7.22;;;;;;;;;;5051050;28;20132;-36
2022/05/06 03:22:40;;;;;;;11.27;7.72;;;;;;;;;;5033020;28;20029;-35
2022/05/06 03:25:07;;;;;;;10.20;6.13;;;;;;;;;;5049661;28;20033;-36
2022/05/06 03:30:16;;;;;;;12.13;6.80;;;;;;;;;;5050954;28;20036;-35
2022/05/06 03:32:43;;;;;;;10.80;7.18;;;;;;;;;;5032972;28;20027;-35
2022/05/06 03:35:09;;;;;;;11.15;6.15;;;;;;;;;;5033052;28;20133;-35
2022/05/06 03:37:39;;;;;;;14.52;8.40;;;;;;;;;;5032748;28;20065;-36
2022/05/06 03:40:06;;;;;;;12.00;6.50;;;;;;;;;;5050908;28;20029;-35
2022/05/06 03:42:33;;;;;;;10.32;6.57;;;;;;;;;;5035136;28;20033;-35
2022/05/06 03:44:59;;;;;;;9.77;6.55;;;;;;;;;;5036748;28;20036;-35
2022/05/06 03:47:26;;;;;;;11.25;7.13;;;;;;;;;;5036517;28;20020;-36
2022/05/06 03:51:20;;;;;;;16.98;7.18;;;;;;;;;;5036678;28;20025;-36
2022/05/06 03:52:38;;;;;;;9.48;7.45;;;;;;;;;;5036504;28;20542;-35
2022/05/06 03:55:04;;;;;;;11.23;6.55;;;;;;;;;;5036634;28;20025;-35
2022/05/06 03:57:30;;;;;;;13.27;6.55;;;;;;;;;;5036301;28;20403;-35
2022/05/06 03:59:56;;;;;;;13.02;7.32;;;;;;;;;;5053129;28;20013;-35
2022/05/06 04:02:21;;;;;;;9.88;6.28;;;;;;;;;;5036541;28;20033;-36
2022/05/06 04:04:47;;;;;;;11.40;7.70;;;;;;;;;;5032841;28;20542;-36
2022/05/06 04:07:15;;;;;;;11.13;6.93;;;;;;;;;;5032993;28;20135;-35
2022/05/06 04:09:46;;;;;;;9.57;6.20;;;;;;;;;;5049587;28;20022;-35
2022/05/06 04:12:12;;;;;;;10.52;7.30;;;;;;;;;;5032942;28;20041;-36
2022/05/06 04:14:44;;;;;;;14.00;7.03;;;;;;;;;;5032811;28;20472;-35
2022/05/06 04:17:11;;;;;;;9.02;5.82;;;;;;;;;;5032808;28;20042;-35
2022/05/06 04:19:36;;;;;;;13.77;6.05;;;;;;;;;;5034282;28;20417;-36
2022/05/06 04:25:01;;;;;;;7.10;5.63;;;;;;;;;;5034134;28;20550;-35
2022/05/06 04:27:30;;;;;;;8.32;5.75;;;;;;;;;;5049145;28;20052;-35
2022/05/06 04:29:58;;;;;;;9.15;5.25;;;;;;;;;;5034226;28;20049;-35
2022/05/06 04:32:27;;;;;;;6.72;5.25;;;;;;;;;;5032542;28;20030;-36
2022/05/06 04:34:53;;;;;;;9.52;5.75;;;;;;;;;;5032535;28;20022;-35
2022/05/06 04:37:21;;;;;;;13.10;5.70;;;;;;;;;;5032399;28;20438;-36
2022/05/06 04:39:48;;;;;;;11.38;6.43;;;;;;;;;;5032461;28;20022;-35
2022/05/06 04:42:15;;;;;;;8.27;5.32;;;;;;;;;;5032346;28;20120;-35
2022/05/06 04:44:42;;;;;;;8.68;5.90;;;;;;;;;;5049007;28;20025;-36
2022/05/06 04:47:07;;;;;;;9.98;6.38;;;;;;;;;;5032226;28;20538;-35
2022/05/06 04:49:34;;;;;;;6.53;5.53;;;;;;;;;;5032188;28;20064;-35
2022/05/06 04:52:00;;;;;;;10.88;5.68;;;;;;;;;;5032205;28;20464;-35
2022/05/06 04:54:26;;;;;;;8.02;6.38;;;;;;;;;;5031905;28;20029;-35
2022/05/06 04:56:53;;;;;;;9.50;6.07;;;;;;;;;;5032073;28;20068;-36
2022/05/06 04:59:27;;;;;;;6.93;5.57;;;;;;;;;;5032028;28;20013;-35
2022/05/06 05:01:53;;;;;;;8.15;6.32;;;;;;;;;;5032104;28;20379;-35
2022/05/06 05:04:19;;;;;;;7.55;5.57;;;;;;;;;;5048425;28;20052;-36
2022/05/06 05:06:47;;;;;;;10.50;6.70;;;;;;;;;;5035200;28;20037;-35
2022/05/06 05:09:16;;;;;;;8.82;6.35;;;;;;;;;;5035095;28;20013;-36
2022/05/06 05:11:45;;;;;;;12.30;6.70;;;;;;;;;;5052973;28;20033;-35
2022/05/06 05:14:17;;;;;;;;;;;;;;;;;;5035539;28;20017;-35
2022/05/06 05:16:44;;;;;;;10.98;6.50;;;;;;;;;;5052971;28;19916;-35
2022/05/06 05:19:10;;;;;;;7.88;6.03;;;;;;;;;;5035075;28;20463;-35
2022/05/06 05:21:43;;;;;;;7.57;5.13;;;;;;;;;;5034911;28;20069;-35
2022/05/06 05:24:08;;;;;;;8.23;6.20;;;;;;;;;;5053079;28;20048;-35
2022/05/06 05:26:37;;;;;;;10.20;6.75;;;;;;;;;;5034751;28;20383;-36
2022/05/06 05:29:04;;;;;;;13.25;6.07;;;;;;;;;;5034836;28;20036;-35
2022/05/06 05:31:30;;;;;;;8.30;5.78;;;;;;;;;;5052652;28;20020;-35
2022/05/06 05:33:55;;;;;;;8.70;6.05;;;;;;;;;;5052716;28;20383;-35
2022/05/06 05:36:22;;;;;;;8.77;6.57;;;;;;;;;;5034646;28;20624;-35
2022/05/06 05:38:47;;;;;;;8.50;6.68;;;;;;;;;;5034544;28;20044;-35
2022/05/06 05:41:13;;;;;;;10.77;7.38;;;;;;;;;;5052494;28;20032;-35
2022/05/06 05:49:10;;;;;;;7.25;6.03;;;;;;;;;;5034462;28;20033;-36
2022/05/06 05:51:37;;;;;;;10.15;6.93;;;;;;;;;;5034348;28;20512;-35
2022/05/06 05:54:03;;;;;;;11.25;6.05;;;;;;;;;;5034349;28;20079;-35
2022/05/06 05:56:32;;;;;;;8.23;5.65;;;;;;;;;;5034105;28;20024;-35
2022/05/06 05:58:58;;;;;;;7.22;5.80;;;;;;;;;;5017918;28;20032;-36
2022/05/06 06:01:24;;;;;;;7.68;5.45;;;;;;;;;;5052057;28;20013;-36
2022/05/06 06:03:51;;;;;;;8.73;5.97;;;;;;;;;;5033787;28;20044;-35
2022/05/06 06:06:17;;;;;;;8.50;6.05;;;;;;;;;;5033727;28;20029;-35
2022/05/06 06:08:47;;;;;;;6.53;5.45;;;;;;;;;;5034008;28;20033;-35
2022/05/06 06:11:12;;;;;;;7.93;5.80;;;;;;;;;;5034131;28;20024;-34
2022/05/06 06:13:42;;;;;;;7.00;5.07;;;;;;;;;;5033887;28;20033;-35
2022/05/06 06:16:14;;;;;;;9.13;6.30;;;;;;;;;;5050550;28;20108;-35
2022/05/06 06:18:39;;;;;;;9.50;5.80;;;;;;;;;;5033892;28;19968;-35
2022/05/06 06:21:05;;;;;;;11.52;6.15;;;;;;;;;;5033747;28;20017;-39
2022/05/06 06:23:32;;;;;;;9.30;6.05;;;;;;;;;;5033759;28;20116;-35
2022/05/06 06:25:58;;;;;;;8.50;6.30;;;;;;;;;;5033788;28;20025;-35
2022/05/06 06:28:24;;;;;;;8.18;5.30;;;;;;;;;;5033696;28;20059;-35
2022/05/06 06:30:49;;;;;;;10.07;6.60;;;;;;;;;;5051899;28;20028;-35
2022/05/06 06:33:16;;;;;;;14.30;6.72;;;;;;;;;;5033802;28;20035;-35
2022/05/06 06:35:43;;;;;;;9.40;5.63;;;;;;;;;;5017161;28;20533;-35
2022/05/06 06:38:09;;;;;;;12.82;6.90;;;;;;;;;;5051420;28;20128;-35
2022/05/06 06:40:40;;;;;;;16.60;8.65;;;;;;;;;;5033435;28;20021;-35
2022/05/06 06:43:06;;;;;;;9.18;6.95;;;;;;;;;;5051435;28;20020;-35
2022/05/06 06:45:50;;;;;;;10.35;5.32;;;;;;;;;;5051697;28;20128;-36
2022/05/06 06:48:31;;;;;;;8.40;5.22;;;;;;;;;;5051264;28;20159;-35
2022/05/06 06:51:05;;;;;;;7.20;4.93;;;;;;;;;;5051570;28;20029;-35
2022/05/06 06:53:36;;;;;;;6.95;4.55;;;;;;;;;;5034297;28;20028;-36
2022/05/06 06:56:02;;;;;;;10.23;5.00;;;;;;;;;;5051494;28;20033;-35
2022/05/06 06:58:27;;;;;;;10.07;5.70;;;;;;;;;;5051031;28;20029;-35
2022/05/06 07:00:53;;;;;;;5.97;4.78;;;;;;;;;;5051545;28;20032;-35
2022/05/06 07:03:19;;;;;;;9.48;5.72;;;;;;;;;;5051016;28;20110;-35
2022/05/06 07:13:56;;;;;;;8.02;5.82;;;;;;;;;;5051418;28;20067;-35
2022/05/06 07:16:22;;;;;;;6.53;4.88;;;;;;;;;;5035280;28;20383;-35
2022/05/06 07:18:49;;;;;;;7.25;6.32;;;;;;;;;;5055011;28;20119;-35
2022/05/06 07:21:14;;;;;;;5.30;4.80;;;;;;;;;;5055111;28;20017;-35
2022/05/06 07:23:40;;;;;;;8.88;5.55;;;;;;;;;;5055225;28;20037;-35
2022/05/06 07:26:05;;;;;;;5.97;5.00;;;;;;;;;;5054895;28;20021;-35
2022/05/06 07:28:30;;;;;;;9.80;5.50;;;;;;;;;;5055230;28;20387;-35
2022/05/06 07:30:56;;;;;;;9.57;6.10;;;;;;;;;;5054895;28;20451;-35
2022/05/06 07:33:21;;;;;;;8.05;5.72;;;;;;;;;;5037027;28;20032;-35
2022/05/06 07:35:47;;;;;;;8.82;6.05;;;;;;;;;;5054775;28;20025;-36
2022/05/06 07:38:12;;;;;;;9.93;5.78;;;;;;;;;;5054770;28;20086;-35
2022/05/06 07:40:38;;;;;;;9.10;6.38;;;;;;;;;;5054752;28;20028;-35
2022/05/06 07:43:03;;;;;;;9.93;6.05;;;;;;;;;;5054742;28;20047;-35
2022/05/06 07:45:29;;;;;;;9.75;5.63;;;;;;;;;;5054874;28;20028;-35
2022/05/06 07:47:54;;;;;;;7.03;5.70;;;;;;;;;;5054879;28;20041;-36
2022/05/06 07:50:20;;;;;;;9.13;5.45;;;;;;;;;;5054608;28;20371;-36
2022/05/06 07:52:46;;;;;;;8.70;5.75;;;;;;;;;;5054407;28;20036;-35
2022/05/06 07:55:14;;;;;;;6.57;4.72;;;;;;;;;;5054749;28;20025;-36
2022/05/06 07:57:39;;;;;;;9.23;7.35;;;;;;;;;;5054555;28;20063;-35
2022/05/06 08:00:06;;;;;;;8.85;6.00;;;;;;;;;;5054406;28;20562;-35
2022/05/06 08:05:22;;;;;;;7.70;6.63;;;;;;;;;;5036417;28;20401;-35
2022/05/06 08:07:47;;;;;;;9.25;6.75;;;;;;;;;;5054201;28;20379;-35
2022/05/06 08:10:14;;;;;;;8.18;6.20;;;;;;;;;;5054196;28;20036;-35
2022/05/06 08:12:39;;;;;;;10.48;6.82;;;;;;;;;;5054189;28;20017;-35
2022/05/06 08:15:04;;;;;;;11.98;6.30;;;;;;;;;;5054347;28;20131;-36
2022/05/06 08:17:30;;;;;;;8.38;6.43;;;;;;;;;;5053911;28;20056;-35
2022/05/06 08:19:55;;;;;;;13.35;5.60;;;;;;;;;;5054281;28;20020;-36
2022/05/06 08:22:20;;;;;;;10.35;5.72;;;;;;;;;;5054072;28;20017;-36
2022/05/06 08:24:46;;;;;;;7.97;5.55;;;;;;;;;;5053866;28;20029;-35
2022/05/06 08:27:11;;;;;;;6.63;5.82;;;;;;;;;;5053301;28;20025;-35
2022/05/06 08:29:37;;;;;;;11.38;5.13;;;;;;;;;;5053741;28;20472;-35
2022/05/06 08:32:03;;;;;;;13.05;5.60;;;;;;;;;;5036088;28;20487;-36
2022/05/06 08:34:29;;;;;;;7.93;5.93;;;;;;;;;;5053808;28;20033;-35
2022/05/06 08:36:54;;;;;;;7.78;5.05;;;;;;;;;;5053793;28;20478;-35
2022/05/06 08:39:20;;;;;;;7.07;5.25;;;;;;;;;;5053895;28;20028;-35
2022/05/06 08:41:45;;;;;;;6.55;5.15;;;;;;;;;;5053530;28;20028;-35
2022/05/06 08:52:31;;;;;;;5.65;4.20;;;;;;;;;;5053377;28;20039;-35
2022/05/06 08:54:57;;;;;;;7.75;4.85;;;;;;;;;;5035863;28;20024;-35
2022/05/06 08:57:23;;;;;;;10.15;4.88;;;;;;;;;;5053133;28;20509;-35
2022/05/06 08:59:49;;;;;;;7.63;4.82;;;;;;;;;;5053319;28;20413;-35
2022/05/06 09:02:14;;;;;;;7.00;5.22;;;;;;;;;;5053325;28;20025;-35
2022/05/06 09:04:40;;;;;;;7.22;5.25;;;;;;;;;;5035103;28;20052;-35
2022/05/06 09:07:19;;;;;;;7.25;4.88;;;;;;;;;;5053207;28;20104;-35
2022/05/06 09:10:05;;;;;;;5.97;4.28;;;;;;;;;;5053028;28;20486;-35
2022/05/06 09:12:42;;;;;;;7.45;4.55;;;;;;;;;;5052907;28;20384;-35
2022/05/06 09:17:56;;;;;;;6.00;4.30;;;;;;;;;;5052815;28;20049;-35
2022/05/06 09:20:22;;;;;;;8.38;5.32;;;;;;;;;;5052968;28;20019;-39
2022/05/06 09:22:50;;;;;;;5.45;4.70;;;;;;;;;;5052834;28;20037;-35
2022/05/06 09:25:39;;;;;;;7.25;5.10;;;;;;;;;;5053048;28;20025;-35
2022/05/06 09:28:06;;;;;;;5.55;4.43;;;;;;;;;;5027129;28;20040;-35
2022/05/06 09:30:32;;;;;;;5.53;4.50;;;;;;;;;;5052687;28;20012;-35
2022/05/06 09:32:58;;;;;;;5.22;4.03;;;;;;;;;;5034846;28;20431;-36
2022/05/06 09:35:27;;;;;;;6.93;4.70;;;;;;;;;;5052860;28;20027;-36
2022/05/06 09:37:53;;;;;;;6.43;4.15;;;;;;;;;;5052560;28;20052;-35
2022/05/06 09:40:28;;;;;;;6.43;4.03;;;;;;;;;;5051531;28;20055;-35
2022/05/06 09:42:53;;;;;;;4.65;3.60;;;;;;;;;;5052477;28;20037;-35
2022/05/06 09:45:27;;;;;;;7.35;5.05;;;;;;;;;;5052444;28;20843;-35
2022/05/06 09:47:57;;;;;;;8.60;4.00;;;;;;;;;;5052469;28;20056;-35
2022/05/06 09:50:30;;;;;;;4.03;3.55;;;;;;;;;;5034434;28;20361;-35
2022/05/06 09:53:00;;;;;;;6.22;3.85;;;;;;;;;;5052301;28;20025;-35
2022/05/06 09:55:26;;;;;;;4.70;3.42;;;;;;;;;;5052088;28;20120;-35
2022/05/06 09:57:52;;;;;;;5.32;3.63;;;;;;;;;;5052167;28;20161;-35
2022/05/06 10:00:17;;;;;;;9.38;4.20;;;;;;;;;;5052141;28;20012;-35
2022/05/06 10:02:43;;;;;;;4.57;3.63;;;;;;;;;;5051696;28;20072;-35
2022/05/06 10:05:08;;;;;;;3.65;3.00;;;;;;;;;;5052050;28;20037;-35
2022/05/06 10:07:34;;;;;;;5.13;3.72;;;;;;;;;;5051831;28;20064;-35
2022/05/06 10:10:02;;;;;;;5.43;3.50;;;;;;;;;;5051969;28;20111;-35
2022/05/06 10:12:30;;;;;;;5.10;3.20;;;;;;;;;;5051911;28;20089;-35
2022/05/06 10:14:56;;;;;;;4.70;3.25;;;;;;;;;;5051786;28;20021;-36
2022/05/06 10:17:45;;;;;;;5.50;3.97;;;;;;;;;;5051621;28;20044;-35
2022/05/06 10:20:10;;;;;;;4.07;3.35;;;;;;;;;;5041066;28;20491;-35
2022/05/06 10:22:54;;;;;;;5.95;3.70;;;;;;;;;;5052094;28;20029;-35
2022/05/06 10:25:38;;;;;;;4.53;3.08;;;;;;;;;;5051850;28;20506;-35
2022/05/06 10:34:15;;;;;;;3.85;2.75;;;;;;;;;;5051869;28;20025;-36
2022/05/06 10:36:43;;;;;;;5.47;3.15;;;;;;;;;;5051506;28;20070;-35
2022/05/06 10:39:24;;;;;;;5.20;3.20;;;;;;;;;;5052011;28;20390;-35
2022/05/06 10:41:59;;;;;;;7.13;4.05;;;;;;;;;;5051906;28;20054;-35
2022/05/06 10:44:38;;;;;;;3.10;2.65;;;;;;;;;;5051642;28;20509;-35
2022/05/06 10:47:23;;;;;;;3.75;2.78;;;;;;;;;;5051530;28;20037;-36
2022/05/06 10:49:50;;;;;;;3.25;2.30;;;;;;;;;;5033624;28;20057;-35
2022/05/06 10:52:15;;;;;;;3.53;2.15;;;;;;;;;;5033564;28;20024;-35
2022/05/06 10:54:44;;;;;;;4.53;2.60;;;;;;;;;;5051530;28;20025;-36
2022/05/06 10:57:10;;;;;;;6.13;3.65;;;;;;;;;;5051399;28;20593;-35
2022/05/06 10:59:48;;;;;;;3.35;2.55;;;;;;;;;;5051313;28;20111;-35
2022/05/06 11:02:14;;;;;;;6.00;3.33;;;;;;;;;;5051437;28;20029;-35
2022/05/06 11:04:42;;;;;;;9.30;3.90;;;;;;;;;;5051149;28;20129;-35
2022/05/06 11:07:11;;;;;;;3.67;3.03;;;;;;;;;;5051408;28;20482;-35
2022/05/06 11:09:37;;;;;;;5.15;2.90;;;;;;;;;;5051659;28;20041;-35
2022/05/06 11:12:04;;;;;;;3.97;3.00;;;;;;;;;;5051395;28;20078;-35
2022/05/06 11:14:29;;;;;;;3.90;3.38;;;;;;;;;;5051499;28;20471;-35
2022/05/06 11:17:14;;;;;;;4.55;2.80;;;;;;;;;;5051258;28;20040;-35
2022/05/06 11:19:39;;;;;;;3.80;2.67;;;;;;;;;;5051209;28;20479;-35
2022/05/06 11:22:05;;;;;;;4.30;3.03;;;;;;;;;;5051469;28;20021;-35
2022/05/06 11:24:31;;;;;;;3.95;2.75;;;;;;;;;;5051370;28;20032;-35
2022/05/06 11:27:11;;;;;;;4.18;2.70;;;;;;;;;;5051315;28;20370;-35
2022/05/06 11:29:47;;;;;;;2.90;2.60;;;;;;;;;;5051381;28;20407;-35
2022/05/06 11:32:13;;;;;;;5.05;3.03;;;;;;;;;;5051417;28;20025;-36
2022/05/06 11:34:41;;;;;;;4.13;2.78;;;;;;;;;;5051219;28;20367;-35
2022/05/06 11:37:07;;;;;;;6.13;2.88;;;;;;;;;;5050993;28;20047;-35
2022/05/06 11:39:32;;;;;;;3.88;3.17;;;;;;;;;;5050977;28;20021;-35
2022/05/06 11:42:17;;;;;;;3.47;2.67;;;;;;;;;;5051192;28;20055;-35
2022/05/06 11:47:29;;;;;;;4.70;2.83;;;;;;;;;;5050837;28;20033;-35
2022/05/06 11:49:55;;;;;;;4.40;2.65;;;;;;;;;;5050914;28;20096;-36
2022/05/06 11:52:21;;;;;;;4.20;3.22;;;;;;;;;;5050978;28;20029;-35
2022/05/06 11:54:47;;;;;;;5.00;2.90;;;;;;;;;;5050874;28;20501;-35
2022/05/06 11:57:13;;;;;;;3.53;2.97;;;;;;;;;;5050720;28;20471;-35
2022/05/06 11:59:38;;;;;;;3.53;2.53;;;;;;;;;;5050887;28;20549;-36
2022/05/06 12:02:07;;;;;;;3.03;2.72;;;;;;;;;;5051107;28;20033;-35
2022/05/06 12:04:33;;;;;;;3.00;2.60;;;;;;;;;;5054278;28;20131;-35
2022/05/06 12:06:59;;;;;;;3.40;2.97;;;;;;;;;;5054577;28;20380;-35
2022/05/06 12:09:24;;;;;;;3.38;2.92;;;;;;;;;;5054426;28;20024;-36
2022/05/06 12:12:04;;;;;;;4.50;3.08;;;;;;;;;;5054394;28;20091;-35
2022/05/06 12:14:29;;;;;;;3.22;2.92;;;;;;;;;;5054618;28;20083;-35
2022/05/06 12:17:03;;;;;;;6.07;2.58;;;;;;;;;;5036128;28;20410;-35
2022/05/06 12:19:44;;;;;;;4.75;2.85;;;;;;;;;;5054598;28;20027;-35
2022/05/06 12:22:11;;;;;;;4.70;2.35;;;;;;;;;;5054225;28;20025;-35
2022/05/06 12:24:42;;;;;;;2.55;2.35;;;;;;;;;;5054123;28;20044;-35
2022/05/06 12:27:08;;;;;;;7.10;2.63;;;;;;;;;;5054032;28;20532;-35
2022/05/06 12:29:37;;;;;;;3.30;2.70;;;;;;;;;;5054007;28;20111;-35
2022/05/06 12:32:03;;;;;;;3.90;3.28;;;;;;;;;;5054090;28;20465;-35
2022/05/06 12:34:29;;;;;;;3.85;3.08;;;;;;;;;;5036491;28;20025;-35
2022/05/06 12:37:07;;;;;;;4.78;3.00;;;;;;;;;;5053850;28;20043;-35
2022/05/06 12:39:38;;;;;;;4.13;3.10;;;;;;;;;;5036452;28;20100;-35
2022/05/06 12:42:11;;;;;;;3.95;3.10;;;;;;;;;;5054265;28;20376;-35
2022/05/06 12:44:37;;;;;;;7.03;3.30;;;;;;;;;;5036066;28;20029;-35
2022/05/06 12:47:13;;;;;;;3.72;2.67;;;;;;;;;;5053857;28;20107;-35
2022/05/06 12:49:42;;;;;;;3.00;2.65;;;;;;;;;;5053738;28;20079;-35
2022/05/06 12:52:10;;;;;;;3.22;2.42;;;;;;;;;;5053427;28;20539;-36
2022/05/06 12:54:36;;;;;;;3.50;2.78;;;;;;;;;;5035669;28;20449;-35
2022/05/06 12:57:03;;;;;;;3.03;2.15;;;;;;;;;;5053497;28;20017;-35
2022/05/06 12:59:29;;;;;;;3.50;2.22;;;;;;;;;;5053742;28;20035;-35
2022/05/06 13:01:55;;;;;;;2.65;2.20;;;;;;;;;;5053436;28;20025;-35
2022/05/06 13:04:21;;;;;;;2.25;2.03;;;;;;;;;;5035480;28;20052;-35
2022/05/06 13:06:47;;;;;;;2.67;2.05;;;;;;;;;;5053299;28;20033;-35
2022/05/06 13:09:12;;;;;;;3.83;2.08;;;;;;;;;;5053460;28;20036;-35
2022/05/06 13:11:38;;;;;;;2.20;2.00;;;;;;;;;;5035519;28;20031;-35
2022/05/06 13:14:06;;;;;;;3.60;2.25;;;;;;;;;;5053201;28;20033;-35
2022/05/06 13:16:34;;;;;;;3.13;2.05;;;;;;;;;;5053440;28;20375;-35
2022/05/06 13:19:01;;;;;;;2.50;2.30;;;;;;;;;;5053226;28;20037;-35
2022/05/06 13:21:26;;;;;;;2.40;1.85;;;;;;;;;;5035459;28;20416;-35
2022/05/06 13:23:52;;;;;;;5.00;1.98;;;;;;;;;;5035336;28;20120;-35
2022/05/06 13:26:18;;;;;;;5.88;2.25;;;;;;;;;;5053180;28;20009;-35
2022/05/06 13:28:44;;;;;;;2.55;2.35;;;;;;;;;;5052948;28;20032;-36
2022/05/06 13:31:10;;;;;;;3.00;2.08;;;;;;;;;;5053166;28;20091;-35
2022/05/06 13:33:37;;;;;;;5.47;1.88;;;;;;;;;;5052913;28;20031;-35
2022/05/06 13:36:03;;;;;;;4.13;2.33;;;;;;;;;;5035005;28;20021;-35
2022/05/06 13:38:28;;;;;;;5.78;4.32;;;;;;;;;;5052803;28;20090;-35
2022/05/06 13:40:54;;;;;;;5.80;2.10;;;;;;;;;;5052661;28;20025;-35
2022/05/06 13:43:20;;;;;;;5.47;2.72;;;;;;;;;;5052708;28;20029;-35
2022/05/06 13:45:45;;;;;;;3.40;2.20;;;;;;;;;;5052593;28;20021;-37
2022/05/06 13:48:11;;;;;;;2.50;1.90;;;;;;;;;;5052845;28;20032;-35
2022/05/06 13:50:37;;;;;;;5.15;2.35;;;;;;;;;;5052497;28;20013;-35
2022/05/06 13:53:02;;;;;;;2.95;2.30;;;;;;;;;;5052817;28;20629;-36
2022/05/06 13:59:03;;;;;;;3.60;2.20;;;;;;;;;;5052348;28;20029;-35
2022/05/06 14:01:00;;;;;;;8.07;2.30;;;;;;;;;;5052606;28;20029;-35
2022/05/06 14:03:26;;;;;;;7.47;2.65;;;;;;;;;;5052051;28;20071;-35
2022/05/06 14:05:52;;;;;;;3.55;1.95;;;;;;;;;;5052165;28;20090;-36
2022/05/06 14:08:19;;;;;;;3.15;2.67;;;;;;;;;;5052280;28;20502;-36
2022/05/06 14:10:45;;;;;;;10.40;2.95;;;;;;;;;;5052087;28;20033;-35
2022/05/06 14:13:11;;;;;;;3.55;2.38;;;;;;;;;;5052214;28;20025;-35
2022/05/06 14:15:37;;;;;;;3.72;2.38;;;;;;;;;;5051917;28;20028;-35
2022/05/06 14:18:02;;;;;;;7.32;2.85;;;;;;;;;;5051920;28;20032;-38
2022/05/06 14:20:28;;;;;;;5.65;2.42;;;;;;;;;;5052083;28;20036;-35
2022/05/06 14:22:53;;;;;;;4.97;2.53;;;;;;;;;;5051863;28;20752;-35
2022/05/06 14:25:19;;;;;;;5.15;3.75;;;;;;;;;;5051334;28;20091;-35
2022/05/06 14:27:46;;;;;;;8.05;2.92;;;;;;;;;;5050928;28;20025;-36
2022/05/06 14:30:12;;;;;;;3.08;2.42;;;;;;;;;;5051774;28;20035;-35
2022/05/06 14:32:38;;;;;;;3.10;2.45;;;;;;;;;;5051603;28;20108;-35
2022/05/06 14:35:22;;;;;;;5.28;2.55;;;;;;;;;;5051786;28;20063;-35
2022/05/06 14:37:49;;;;;;;3.28;2.17;;;;;;;;;;5051707;28;20041;-35
2022/05/06 14:40:15;;;;;;;5.63;2.15;;;;;;;;;;5051675;28;20013;-35
2022/05/06 14:42:41;;;;;;;4.03;2.22;;;;;;;;;;5051721;28;20083;-36
2022/05/06 14:45:08;;;;;;;3.33;2.20;;;;;;;;;;5051709;28;20102;-36
2022/05/06 14:47:34;;;;;;;3.25;2.50;;;;;;;;;;5051693;28;20726;-35
2022/05/06 14:50:00;;;;;;;3.42;2.10;;;;;;;;;;5051690;28;20017;-36
2022/05/06 14:52:25;;;;;;;3.35;2.25;;;;;;;;;;5051570;28;20429;-36
2022/05/06 14:54:52;;;;;;;6.30;2.42;;;;;;;;;;5051774;28;20082;-36
2022/05/06 14:57:18;;;;;;;2.92;2.03;;;;;;;;;;5033474;28;20044;-35
2022/05/06 14:59:44;;;;;;;2.45;2.20;;;;;;;;;;5051417;28;20017;-35
2022/05/06 15:02:10;;;;;;;6.22;3.03;;;;;;;;;;5033636;28;20032;-36
2022/05/06 15:04:36;;;;;;;2.65;2.35;;;;;;;;;;5051224;28;20079;-35
2022/05/06 15:07:02;;;;;;;3.33;2.00;;;;;;;;;;5051297;28;20061;-35
2022/05/06 15:09:36;;;;;;;4.38;2.80;;;;;;;;;;5033433;28;20087;-36
2022/05/06 15:12:08;;;;;;;5.25;2.60;;;;;;;;;;5034035;28;20033;-35
2022/05/06 15:14:35;;;;;;;7.32;2.65;;;;;;;;;;5051539;28;20039;-36
2022/05/06 15:17:04;;;;;;;4.13;3.00;;;;;;;;;;5051155;28;20051;-35
2022/05/06 15:19:34;;;;;;;3.45;2.75;;;;;;;;;;5051318;28;20100;-35
2022/05/06 15:22:01;;;;;;;3.38;2.17;;;;;;;;;;5051120;28;20037;-35
2022/05/06 15:24:27;;;;;;;6.05;2.45;;;;;;;;;;5051265;28;20021;-35
2022/05/06 15:27:00;;;;;;;6.45;2.58;;;;;;;;;;5051002;28;20024;-35
2022/05/06 15:29:26;;;;;;;6.53;2.03;;;;;;;;;;5051082;28;20558;-35
2022/05/06 15:31:52;;;;;;;5.38;3.10;;;;;;;;;;5051224;28;20379;-36
2022/05/06 15:34:18;;;;;;;5.15;2.22;;;;;;;;;;5051343;28;20029;-35
2022/05/06 15:36:44;;;;;;;2.90;2.00;;;;;;;;;;5050367;28;20032;-35
2022/05/06 15:39:09;;;;;;;3.45;2.13;;;;;;;;;;5054620;28;20033;-35